Time;durP1;ratioP1;P1;durP2;ratioP2;P2;SDS_P1;SDS_P2;PMS_P1;PMS_P2;Temp;Humidity;BMP_temperature;BMP_pressure;BME280_temperature;BME280_humidity;BME280_pressure;Samples;Min_cycle;Max_cycle;Signal;HPM_P1;HPM_P2
2023/01/08 00:02:06;;;;;;;26.10;15.27;;;-1.30;99.90;;;;;;8297120;28;20185;-67
2023/01/08 00:06:11;;;;;;;28.93;16.80;;;-1.30;99.90;;;;;;8293447;28;20187;-69
2023/01/08 00:10:12;;;;;;;29.97;18.03;;;-1.30;99.90;;;;;;8293528;28;20190;-67
2023/01/08 00:14:13;;;;;;;31.30;16.07;;;-1.30;99.90;;;;;;8295567;28;20201;-67
2023/01/08 00:18:13;;;;;;;31.37;17.80;;;-1.40;99.90;;;;;;8298059;28;20218;-67
2023/01/08 00:22:14;;;;;;;28.33;15.97;;;-1.40;99.90;;;;;;8293542;28;20189;-67
2023/01/08 00:26:15;;;;;;;26.10;14.97;;;-1.50;99.90;;;;;;8314312;28;20193;-66
2023/01/08 00:30:16;;;;;;;22.70;13.43;;;-1.60;99.90;;;;;;8299752;28;20188;-66
2023/01/08 00:34:17;;;;;;;27.73;15.20;;;-1.60;99.90;;;;;;8296845;28;20216;-67
2023/01/08 00:38:17;;;;;;;27.13;13.93;;;-1.70;99.90;;;;;;8294302;28;20216;-70
2023/01/08 00:42:18;;;;;;;23.20;13.67;;;-1.70;99.90;;;;;;8312235;28;20293;-67
2023/01/08 00:46:19;;;;;;;23.27;13.10;;;-1.70;99.90;;;;;;8291314;28;20278;-67
2023/01/08 00:50:20;;;;;;;22.67;13.63;;;-1.70;99.90;;;;;;8290078;28;20195;-67
2023/01/08 00:54:21;;;;;;;26.33;14.43;;;-1.70;99.90;;;;;;8290575;28;20491;-67
2023/01/08 00:58:22;;;;;;;33.03;19.40;;;-1.70;99.90;;;;;;8308346;28;20203;-66
2023/01/08 01:02:22;;;;;;;39.17;20.47;;;-1.70;99.90;;;;;;8292503;28;20188;-66
2023/01/08 01:06:23;;;;;;;27.97;17.40;;;-1.60;99.90;;;;;;8296201;28;20272;-66
2023/01/08 01:10:24;;;;;;;33.13;19.73;;;-1.60;99.90;;;;;;8290472;28;20233;-67
2023/01/08 01:14:25;;;;;;;33.63;19.80;;;-1.60;99.90;;;;;;8295825;28;20617;-67
2023/01/08 01:18:26;;;;;;;30.90;18.23;;;-1.60;99.90;;;;;;8307039;28;20208;-67
2023/01/08 01:22:27;;;;;;;29.67;17.47;;;-1.70;99.90;;;;;;8295694;28;20184;-67
2023/01/08 01:26:28;;;;;;;42.47;22.43;;;-1.70;99.90;;;;;;8288614;28;20183;-67
2023/01/08 01:30:29;;;;;;;36.63;21.33;;;-1.70;99.90;;;;;;8289306;28;20190;-67
2023/01/08 01:34:30;;;;;;;32.37;18.73;;;-1.70;99.90;;;;;;8297125;28;20208;-67
2023/01/08 01:38:31;;;;;;;31.10;17.40;;;-1.70;99.90;;;;;;8305090;28;20208;-67
2023/01/08 01:42:40;;;;;;;32.40;18.27;;;-1.70;99.90;;;;;;8295477;28;20195;-67
2023/01/08 01:46:41;;;;;;;33.40;18.77;;;-1.80;99.90;;;;;;8297035;28;20180;-67
2023/01/08 01:50:46;;;;;;;37.63;20.67;;;-1.80;99.90;;;;;;8297047;28;20246;-68
2023/01/08 01:54:49;;;;;;;39.80;22.53;;;-1.80;99.90;;;;;;8288037;28;20194;-67
2023/01/08 01:58:49;;;;;;;34.70;20.30;;;-1.80;99.90;;;;;;8297072;28;20208;-68
2023/01/08 02:02:52;;;;;;;33.50;18.70;;;-1.80;99.90;;;;;;8300103;28;20272;-68
2023/01/08 02:07:03;;;;;;;33.33;17.90;;;-1.80;99.90;;;;;;8297761;28;20211;-67
2023/01/08 02:11:15;;;;;;;31.80;17.83;;;-1.70;99.90;;;;;;8295256;28;20302;-66
2023/01/08 02:15:26;;;;;;;29.23;16.70;;;-1.70;99.90;;;;;;8299083;28;20217;-66
2023/01/08 02:19:57;;;;;;;32.37;18.07;;;-1.70;99.90;;;;;;8292692;28;20404;-69
2023/01/08 02:24:20;;;;;;;30.13;16.43;;;-1.70;99.90;;;;;;8291966;28;20188;-67
2023/01/08 02:28:22;;;;;;;28.50;16.97;;;-1.70;99.90;;;;;;8308592;28;20283;-67
2023/01/08 02:32:31;;;;;;;33.73;18.90;;;-1.80;99.90;;;;;;8296864;28;20270;-67
2023/01/08 02:36:52;;;;;;;37.93;20.40;;;-1.70;99.90;;;;;;8312593;28;20220;-67
2023/01/08 02:40:55;;;;;;;35.40;20.53;;;-1.70;99.90;;;;;;8293892;28;20204;-68
2023/01/08 02:45:04;;;;;;;36.90;21.33;;;-1.70;99.90;;;;;;8292199;28;20210;-69
2023/01/08 02:49:09;;;;;;;49.23;26.10;;;-1.70;99.90;;;;;;8293600;28;20190;-69
2023/01/08 02:53:12;;;;;;;52.93;28.53;;;-1.70;99.90;;;;;;8297572;28;20208;-68
2023/01/08 02:57:15;;;;;;;44.27;24.80;;;-1.50;99.90;;;;;;8295113;28;20198;-68
2023/01/08 03:01:17;;;;;;;44.80;24.27;;;-1.40;99.90;;;;;;8294347;28;20244;-66
2023/01/08 03:05:23;;;;;;;42.83;23.80;;;-1.40;99.90;;;;;;8298772;28;20187;-68
2023/01/08 03:09:25;;;;;;;33.67;19.70;;;-1.40;99.90;;;;;;8307257;28;20294;-67
2023/01/08 03:13:33;;;;;;;40.57;21.67;;;-1.40;99.90;;;;;;8314804;28;20193;-67
2023/01/08 03:17:38;;;;;;;45.97;24.63;;;-1.40;99.90;;;;;;8315539;28;20208;-67
2023/01/08 03:21:41;;;;;;;39.03;24.03;;;-1.40;99.90;;;;;;8315957;28;20185;-66
2023/01/08 03:25:45;;;;;;;46.80;24.27;;;-1.50;99.90;;;;;;8310627;28;20190;-67
2023/01/08 03:29:50;;;;;;;36.03;20.70;;;-1.50;99.90;;;;;;8298992;28;20188;-66
2023/01/08 03:33:51;;;;;;;39.83;21.33;;;-1.50;99.90;;;;;;8295473;28;20447;-67
2023/01/08 03:38:07;;;;;;;34.23;19.10;;;-1.60;99.90;;;;;;8296864;28;20225;-67
2023/01/08 03:42:11;;;;;;;47.17;27.20;;;-1.60;99.90;;;;;;8292753;28;20187;-67
2023/01/08 03:46:17;;;;;;;53.73;28.20;;;-1.50;99.90;;;;;;8302847;28;20176;-68
2023/01/08 03:50:22;;;;;;;47.23;26.67;;;-1.50;99.90;;;;;;8298638;28;20282;-69
2023/01/08 03:54:28;;;;;;;53.73;26.70;;;-1.50;99.90;;;;;;8299319;28;20185;-66
2023/01/08 03:58:29;;;;;;;44.73;25.37;;;-1.50;99.90;;;;;;8295784;28;20224;-67
2023/01/08 04:02:30;;;;;;;48.37;26.97;;;-1.50;99.90;;;;;;8304721;28;20217;-67
2023/01/08 04:06:31;;;;;;;46.73;24.77;;;-1.50;99.90;;;;;;8311026;28;20190;-67
2023/01/08 04:10:31;;;;;;;41.37;22.43;;;-1.50;99.90;;;;;;8316714;28;20182;-67
2023/01/08 04:14:32;;;;;;;36.30;19.13;;;-1.50;99.90;;;;;;8297734;28;20225;-67
2023/01/08 04:18:33;;;;;;;50.10;27.87;;;-1.40;99.90;;;;;;8310917;28;20246;-69
2023/01/08 04:22:34;;;;;;;46.93;25.50;;;-1.40;99.90;;;;;;8298408;28;20182;-67
2023/01/08 04:26:35;;;;;;;45.30;25.60;;;-1.50;99.90;;;;;;8300960;28;20189;-68
2023/01/08 04:30:36;;;;;;;48.60;26.07;;;-1.60;99.90;;;;;;8297011;28;20178;-67
2023/01/08 04:34:37;;;;;;;41.57;25.07;;;-1.60;99.90;;;;;;8289220;28;20207;-67
2023/01/08 04:38:38;;;;;;;58.67;29.10;;;-1.60;99.90;;;;;;8289482;28;20214;-67
2023/01/08 04:42:39;;;;;;;59.67;33.80;;;-1.60;99.90;;;;;;8297762;28;20191;-70
2023/01/08 04:46:40;;;;;;;71.43;36.70;;;-1.60;99.90;;;;;;8289385;28;20182;-68
2023/01/08 04:50:40;;;;;;;44.67;24.87;;;-1.60;99.90;;;;;;8291881;28;20184;-68
2023/01/08 04:54:41;;;;;;;42.27;22.30;;;-1.60;99.90;;;;;;8292406;28;20184;-68
2023/01/08 04:58:42;;;;;;;43.20;24.70;;;-1.50;99.90;;;;;;8291598;28;20246;-67
2023/01/08 05:02:43;;;;;;;42.73;23.63;;;-1.50;99.90;;;;;;8290091;28;20179;-70
2023/01/08 05:06:43;;;;;;;47.77;25.50;;;-1.50;99.90;;;;;;8291544;28;20479;-67
2023/01/08 05:10:44;;;;;;;42.60;24.60;;;-1.60;99.90;;;;;;8288203;28;20188;-68
2023/01/08 05:14:45;;;;;;;44.83;22.97;;;-1.70;99.90;;;;;;8287942;28;20187;-67
2023/01/08 05:18:46;;;;;;;44.77;26.37;;;-1.70;99.90;;;;;;8293546;28;20199;-68
2023/01/08 05:22:47;;;;;;;47.50;27.03;;;-1.80;99.90;;;;;;8291305;28;20188;-67
2023/01/08 05:26:48;;;;;;;53.23;31.07;;;-1.80;99.90;;;;;;8302775;28;20256;-69
2023/01/08 05:30:49;;;;;;;72.27;39.07;;;-1.80;99.90;;;;;;8291685;28;20182;-68
2023/01/08 05:34:50;;;;;;;108.77;52.87;;;-1.80;99.90;;;;;;8296382;28;20594;-70
2023/01/08 05:38:51;;;;;;;77.20;40.10;;;-1.80;99.90;;;;;;8286504;28;20583;-67
2023/01/08 05:42:51;;;;;;;65.60;34.70;;;-1.90;99.90;;;;;;8284411;28;20206;-67
2023/01/08 05:46:53;;;;;;;47.23;25.67;;;-2.00;99.90;;;;;;8292798;28;20195;-67
2023/01/08 05:50:54;;;;;;;34.27;19.67;;;-2.10;99.90;;;;;;8301613;28;20182;-67
2023/01/08 05:54:55;;;;;;;28.50;16.17;;;-2.20;99.90;;;;;;8292364;28;20253;-71
2023/01/08 05:58:55;;;;;;;27.87;16.23;;;-2.20;99.90;;;;;;8290829;28;20244;-67
2023/01/08 06:02:56;;;;;;;25.07;14.90;;;-2.20;99.90;;;;;;8287661;28;20206;-67
2023/01/08 06:06:57;;;;;;;35.87;18.57;;;-2.20;99.90;;;;;;8307039;28;20244;-67
2023/01/08 06:11:04;;;;;;;40.23;20.67;;;-2.10;99.90;;;;;;8295280;28;20202;-67
2023/01/08 06:15:05;;;;;;;56.80;31.47;;;-2.10;99.90;;;;;;8299554;28;20190;-67
2023/01/08 06:19:09;;;;;;;51.67;29.43;;;-2.10;99.90;;;;;;8290701;28;20206;-67
2023/01/08 06:23:09;;;;;;;43.10;24.60;;;-2.10;99.90;;;;;;8294345;28;20268;-67
2023/01/08 06:27:10;;;;;;;36.57;20.50;;;-2.20;99.90;;;;;;8285027;28;20182;-67
2023/01/08 06:31:11;;;;;;;33.00;18.60;;;-2.30;99.90;;;;;;8286794;28;20622;-70
2023/01/08 06:35:12;;;;;;;35.03;18.80;;;-2.40;99.90;;;;;;8308245;28;20276;-70
2023/01/08 06:39:12;;;;;;;31.87;18.07;;;-2.50;99.90;;;;;;8292656;28;20278;-67
2023/01/08 06:43:13;;;;;;;34.53;19.67;;;-2.50;99.90;;;;;;8292750;28;20187;-68
2023/01/08 06:47:14;;;;;;;34.43;18.53;;;-2.60;99.90;;;;;;8292094;28;20197;-68
2023/01/08 06:51:15;;;;;;;24.40;14.10;;;-2.50;99.90;;;;;;8297383;28;20187;-68
2023/01/08 06:55:16;;;;;;;66.33;30.53;;;-2.50;99.90;;;;;;8296181;28;20192;-68
2023/01/08 06:59:16;;;;;;;43.70;24.23;;;-2.30;99.90;;;;;;8289127;28;20292;-67
2023/01/08 07:03:17;;;;;;;52.37;28.27;;;-2.20;99.90;;;;;;8291672;28;20298;-68
2023/01/08 07:07:18;;;;;;;76.77;45.07;;;-2.20;99.90;;;;;;8293587;28;20768;-68
2023/01/08 07:11:19;;;;;;;55.40;32.47;;;-2.20;99.90;;;;;;8290571;28;20186;-67
2023/01/08 07:15:20;;;;;;;47.27;27.03;;;-2.20;99.90;;;;;;8296484;28;20209;-68
2023/01/08 07:19:20;;;;;;;37.17;22.17;;;-2.20;99.90;;;;;;8292317;28;20252;-68
2023/01/08 07:23:21;;;;;;;42.37;24.10;;;-2.30;99.90;;;;;;8301212;28;20273;-68
2023/01/08 07:27:22;;;;;;;43.63;26.20;;;-2.30;99.90;;;;;;8306561;28;20197;-68
2023/01/08 07:31:23;;;;;;;99.97;49.00;;;-2.30;99.90;;;;;;8293974;28;20195;-69
2023/01/08 07:35:23;;;;;;;156.77;76.30;;;-2.20;99.90;;;;;;8306637;28;20216;-67
2023/01/08 07:39:24;;;;;;;201.57;101.77;;;-2.10;99.90;;;;;;8299458;28;20202;-68
2023/01/08 07:43:25;;;;;;;366.80;154.77;;;-1.90;99.90;;;;;;8287142;28;20180;-67
2023/01/08 07:47:26;;;;;;;173.87;78.77;;;-1.80;99.90;;;;;;8306830;28;20201;-67
2023/01/08 07:51:28;;;;;;;62.73;33.10;;;-1.80;99.90;;;;;;8297860;28;20294;-68
2023/01/08 07:55:30;;;;;;;62.43;34.97;;;-1.70;99.90;;;;;;8296352;28;20197;-70
2023/01/08 07:59:31;;;;;;;60.20;31.97;;;-1.70;99.90;;;;;;8316737;28;20218;-69
2023/01/08 08:03:32;;;;;;;126.87;54.17;;;-1.50;99.90;;;;;;8294810;28;20204;-69
2023/01/08 08:07:33;;;;;;;143.90;59.63;;;-1.40;99.90;;;;;;8299474;28;20180;-68
2023/01/08 08:11:34;;;;;;;126.27;56.40;;;-1.30;99.90;;;;;;8292157;28;20456;-68
2023/01/08 08:15:35;;;;;;;95.93;43.70;;;-1.10;99.90;;;;;;8297044;28;20183;-68
2023/01/08 08:19:36;;;;;;;77.73;41.07;;;-0.90;99.90;;;;;;8295050;28;20209;-68
2023/01/08 08:23:37;;;;;;;93.80;46.27;;;-0.70;99.90;;;;;;8292467;28;20265;-68
2023/01/08 08:27:38;;;;;;;91.93;44.80;;;-0.50;99.90;;;;;;8303197;28;20422;-68
2023/01/08 08:31:39;;;;;;;140.37;69.90;;;-0.40;99.90;;;;;;8292802;28;20186;-67
2023/01/08 08:35:40;;;;;;;200.67;92.27;;;-0.20;99.90;;;;;;8278139;28;20233;-67
2023/01/08 08:39:40;;;;;;;322.03;133.43;;;0.00;99.90;;;;;;8296413;28;20218;-68
2023/01/08 08:43:42;;;;;;;228.27;107.57;;;0.10;99.90;;;;;;8296267;28;20218;-67
2023/01/08 08:47:43;;;;;;;178.50;90.53;;;0.10;99.90;;;;;;8288000;28;20269;-69
2023/01/08 08:51:44;;;;;;;169.03;84.27;;;0.20;99.90;;;;;;8289619;28;20695;-68
2023/01/08 08:55:44;;;;;;;180.80;94.30;;;0.30;99.90;;;;;;8313396;28;20276;-68
2023/01/08 08:59:45;;;;;;;194.97;95.17;;;0.30;99.90;;;;;;8297012;28;20219;-68
2023/01/08 09:03:46;;;;;;;192.87;97.73;;;0.30;99.90;;;;;;8287834;28;20190;-69
2023/01/08 09:07:47;;;;;;;229.57;110.67;;;0.40;99.90;;;;;;8300224;28;20266;-68
2023/01/08 09:11:48;;;;;;;233.10;114.30;;;0.50;99.90;;;;;;8288569;28;20187;-68
2023/01/08 09:15:48;;;;;;;221.77;107.87;;;0.60;99.90;;;;;;8295829;28;20272;-68
2023/01/08 09:19:49;;;;;;;166.13;80.73;;;0.70;99.90;;;;;;8294778;28;20252;-68
2023/01/08 09:23:50;;;;;;;137.63;71.27;;;0.80;99.90;;;;;;8308287;28;20222;-68
2023/01/08 09:28:03;;;;;;;125.63;64.77;;;0.70;99.90;;;;;;8290372;28;20515;-69
2023/01/08 09:32:07;;;;;;;141.00;70.43;;;0.80;99.90;;;;;;8299774;28;20577;-68
2023/01/08 09:36:11;;;;;;;132.70;70.40;;;1.00;99.90;;;;;;8291261;28;20584;-68
2023/01/08 09:40:15;;;;;;;126.63;66.40;;;1.20;99.90;;;;;;8291190;28;20215;-68
2023/01/08 09:44:24;;;;;;;127.13;67.53;;;1.50;99.90;;;;;;8291900;28;20206;-68
2023/01/08 09:48:33;;;;;;;142.23;70.60;;;1.80;99.90;;;;;;8295625;28;20253;-68
2023/01/08 09:52:34;;;;;;;140.33;74.53;;;2.20;99.90;;;;;;8292990;28;20194;-68
2023/01/08 09:56:38;;;;;;;208.57;112.70;;;2.50;99.90;;;;;;8279078;28;20228;-68
2023/01/08 10:00:39;;;;;;;230.03;128.83;;;2.50;99.90;;;;;;8280227;28;20249;-69
2023/01/08 10:04:42;;;;;;;185.03;106.27;;;2.50;99.90;;;;;;8294376;28;20191;-70
2023/01/08 10:08:43;;;;;;;182.13;104.60;;;2.50;99.90;;;;;;8295082;28;21480;-70
2023/01/08 10:12:45;;;;;;;169.60;98.43;;;2.70;99.90;;;;;;8296272;28;20192;-70
2023/01/08 10:16:48;;;;;;;328.30;186.97;;;2.80;99.90;;;;;;8298046;28;20253;-71
2023/01/08 10:20:48;;;;;;;367.47;205.50;;;3.00;99.90;;;;;;8297809;28;20217;-69
2023/01/08 10:24:50;;;;;;;338.07;192.33;;;3.30;99.90;;;;;;8296828;28;20193;-70
2023/01/08 10:28:51;;;;;;;317.37;180.57;;;3.70;99.90;;;;;;8293190;28;20190;-70
2023/01/08 10:32:55;;;;;;;339.93;213.27;;;4.00;99.90;;;;;;8300442;28;20198;-69
2023/01/08 10:36:56;;;;;;;282.77;176.67;;;4.20;99.90;;;;;;8292982;28;20218;-70
2023/01/08 10:40:58;;;;;;;269.37;164.17;;;4.40;99.90;;;;;;8301301;28;20230;-70
2023/01/08 10:45:04;;;;;;;255.60;157.90;;;4.70;99.90;;;;;;8299629;28;20278;-70
2023/01/08 10:49:06;;;;;;;299.93;192.07;;;5.00;99.90;;;;;;8296017;28;20228;-69
2023/01/08 10:53:27;;;;;;;267.90;170.47;;;5.10;99.90;;;;;;8292298;28;20197;-70
2023/01/08 10:57:29;;;;;;;259.73;170.03;;;5.00;99.90;;;;;;8294894;28;20198;-69
2023/01/08 11:01:31;;;;;;;235.90;147.50;;;4.90;99.90;;;;;;8299059;28;20222;-70
2023/01/08 11:05:37;;;;;;;282.90;150.17;;;5.00;99.90;;;;;;8298615;28;20202;-69
2023/01/08 11:09:47;;;;;;;214.60;121.33;;;5.10;99.90;;;;;;8300817;28;20202;-73
2023/01/08 11:14:00;;;;;;;178.20;105.77;;;5.30;99.90;;;;;;8292794;28;20273;-69
2023/01/08 11:18:19;;;;;;;150.87;95.03;;;5.40;99.90;;;;;;8278585;28;20200;-71
2023/01/08 11:22:24;;;;;;;156.20;97.50;;;5.60;99.90;;;;;;8296220;28;20265;-71
2023/01/08 11:26:26;;;;;;;171.17;104.30;;;5.70;99.90;;;;;;8293837;28;20190;-70
2023/01/08 11:30:31;;;;;;;166.17;100.50;;;5.80;99.90;;;;;;8291162;28;20199;-72
2023/01/08 11:34:50;;;;;;;141.47;88.87;;;5.90;99.90;;;;;;8296047;28;20274;-72
2023/01/08 11:38:51;;;;;;;148.43;83.83;;;5.80;99.90;;;;;;8291558;28;20232;-71
2023/01/08 11:43:06;;;;;;;135.13;84.00;;;6.00;99.90;;;;;;8298573;28;20249;-71
2023/01/08 11:47:16;;;;;;;142.20;86.30;;;6.10;99.90;;;;;;8289325;28;20191;-68
2023/01/08 11:51:47;;;;;;;126.40;78.40;;;6.20;99.90;;;;;;8292309;28;20458;-71
2023/01/08 11:56:20;;;;;;;85.10;53.47;;;6.20;99.90;;;;;;8294890;28;20194;-69
2023/01/08 12:00:33;;;;;;;56.47;36.90;;;6.30;99.90;;;;;;8292149;28;20385;-68
2023/01/08 12:05:17;;;;;;;68.10;41.40;;;6.30;99.90;;;;;;8290218;28;20186;-69
2023/01/08 12:09:42;;;;;;;84.10;46.70;;;6.40;99.90;;;;;;8310743;28;20198;-68
2023/01/08 12:14:03;;;;;;;84.97;51.87;;;6.50;99.90;;;;;;8293543;28;20195;-69
2023/01/08 12:18:24;;;;;;;86.80;57.13;;;6.60;99.90;;;;;;8293403;28;20195;-68
2023/01/08 12:22:59;;;;;;;82.83;54.43;;;6.60;99.90;;;;;;8283047;28;20206;-68
2023/01/08 12:27:32;;;;;;;82.07;52.93;;;6.70;99.90;;;;;;8292729;28;20550;-69
2023/01/08 12:32:06;;;;;;;85.60;58.23;;;6.70;99.90;;;;;;8293462;28;20190;-69
2023/01/08 12:36:17;;;;;;;83.20;56.10;;;6.80;99.90;;;;;;8296195;28;20210;-68
2023/01/08 12:40:30;;;;;;;86.10;57.20;;;6.80;99.90;;;;;;8293342;28;20512;-69
2023/01/08 12:44:32;;;;;;;83.70;52.93;;;6.80;99.90;;;;;;8295094;28;20182;-68
2023/01/08 12:48:35;;;;;;;97.60;59.03;;;6.80;99.90;;;;;;8287068;28;20191;-69
2023/01/08 12:52:57;;;;;;;103.57;63.57;;;6.80;99.90;;;;;;8288912;28;20230;-68
2023/01/08 12:57:12;;;;;;;123.77;67.57;;;6.80;99.90;;;;;;8298802;28;20218;-69
2023/01/08 13:01:35;;;;;;;118.07;64.90;;;6.80;99.90;;;;;;8292188;28;20211;-68
2023/01/08 13:05:37;;;;;;;176.67;98.33;;;6.70;99.90;;;;;;8290892;28;20186;-68
2023/01/08 13:09:38;;;;;;;202.87;107.93;;;6.60;99.90;;;;;;8294462;28;20196;-68
2023/01/08 13:13:43;;;;;;;182.10;98.13;;;6.60;99.90;;;;;;8294985;28;20195;-69
2023/01/08 13:17:48;;;;;;;160.97;88.13;;;6.50;99.90;;;;;;8295803;28;20201;-68
2023/01/08 13:21:55;;;;;;;126.47;66.77;;;6.50;99.90;;;;;;8293960;28;20776;-68
2023/01/08 13:25:59;;;;;;;81.70;52.87;;;6.40;99.90;;;;;;8293504;28;20212;-67
2023/01/08 13:30:01;;;;;;;81.83;53.87;;;6.30;99.90;;;;;;8293420;28;21494;-68
2023/01/08 13:34:02;;;;;;;87.27;53.63;;;6.30;99.90;;;;;;8296873;28;20433;-68
2023/01/08 13:38:20;;;;;;;100.10;61.43;;;6.20;99.90;;;;;;8290318;28;20221;-72
2023/01/08 13:42:27;;;;;;;95.57;58.23;;;6.30;99.90;;;;;;8289705;28;20281;-70
2023/01/08 13:46:29;;;;;;;77.57;52.83;;;6.20;99.90;;;;;;8288510;28;20198;-69
2023/01/08 13:50:31;;;;;;;87.17;56.43;;;6.20;99.90;;;;;;8290572;28;20191;-69
2023/01/08 13:54:41;;;;;;;85.27;58.37;;;6.10;99.90;;;;;;8290093;28;20214;-68
2023/01/08 13:58:50;;;;;;;81.57;51.80;;;5.80;99.90;;;;;;8290054;28;20211;-68
2023/01/08 14:02:53;;;;;;;61.70;42.87;;;5.80;99.90;;;;;;8291569;28;20433;-68
2023/01/08 14:07:11;;;;;;;56.37;39.80;;;5.80;99.90;;;;;;8296591;28;20190;-68
2023/01/08 14:11:12;;;;;;;57.70;37.70;;;5.70;99.90;;;;;;8306120;28;20187;-68
2023/01/08 14:15:25;;;;;;;49.60;33.73;;;5.70;99.90;;;;;;8292484;28;20202;-69
2023/01/08 14:19:27;;;;;;;46.53;33.33;;;5.60;99.90;;;;;;8294258;28;20214;-69
2023/01/08 14:23:33;;;;;;;52.70;35.87;;;5.50;99.90;;;;;;8294512;28;20194;-68
2023/01/08 14:27:34;;;;;;;57.60;38.47;;;5.40;99.90;;;;;;8291033;28;20218;-68
2023/01/08 14:31:35;;;;;;;60.80;40.40;;;5.20;99.90;;;;;;8288446;28;20198;-69
2023/01/08 14:35:36;;;;;;;61.67;42.50;;;5.10;99.90;;;;;;8287777;28;20214;-70
2023/01/08 14:39:37;;;;;;;59.40;40.73;;;4.90;99.90;;;;;;8293788;28;20225;-70
2023/01/08 14:43:44;;;;;;;65.77;42.80;;;4.80;99.90;;;;;;8295617;28;20191;-69
2023/01/08 14:47:50;;;;;;;67.63;45.40;;;4.70;99.90;;;;;;8289401;28;20240;-70
2023/01/08 14:51:52;;;;;;;70.00;49.03;;;4.70;99.90;;;;;;8292653;28;20206;-69
2023/01/08 14:55:55;;;;;;;74.40;46.57;;;4.70;99.90;;;;;;8303670;28;20187;-69
2023/01/08 14:59:58;;;;;;;74.13;49.47;;;4.60;99.90;;;;;;8293946;28;20433;-70
2023/01/08 15:04:17;;;;;;;145.97;90.30;;;4.50;99.90;;;;;;8301542;28;20193;-69
2023/01/08 15:08:41;;;;;;;134.30;84.07;;;4.50;99.90;;;;;;8295877;28;20352;-69
2023/01/08 15:12:42;;;;;;;105.43;65.97;;;4.30;99.90;;;;;;8292520;28;20229;-69
2023/01/08 15:16:43;;;;;;;91.43;55.63;;;4.30;99.90;;;;;;8292413;28;20250;-70
2023/01/08 15:20:45;;;;;;;75.30;48.43;;;4.20;99.90;;;;;;8298229;28;20237;-69
2023/01/08 15:24:57;;;;;;;78.07;50.83;;;4.10;99.90;;;;;;8295047;28;20265;-69
2023/01/08 15:29:05;;;;;;;77.57;49.60;;;4.00;99.90;;;;;;8296618;28;20187;-70
2023/01/08 15:33:21;;;;;;;74.80;48.60;;;3.90;99.90;;;;;;8292319;28;20194;-69
2023/01/08 15:37:22;;;;;;;68.53;42.77;;;3.90;99.90;;;;;;8295182;28;20218;-69
2023/01/08 15:45:45;;;;;;;75.03;46.03;;;3.70;99.90;;;;;;8292197;28;20205;-69
2023/01/08 15:49:46;;;;;;;75.20;45.50;;;3.60;99.90;;;;;;8290052;28;20449;-69
2023/01/08 15:53:47;;;;;;;75.87;47.07;;;3.60;99.90;;;;;;8289417;28;20249;-68
2023/01/08 15:57:48;;;;;;;64.47;39.53;;;3.60;99.90;;;;;;8284722;28;20237;-69
2023/01/08 16:01:49;;;;;;;84.10;57.27;;;3.60;99.90;;;;;;8300480;28;20282;-68
2023/01/08 16:05:50;;;;;;;71.93;49.07;;;3.70;99.90;;;;;;8295167;28;20187;-69
2023/01/08 16:09:51;;;;;;;66.13;43.83;;;3.60;99.90;;;;;;8296749;28;20233;-68
2023/01/08 16:13:53;;;;;;;55.93;37.70;;;3.60;99.90;;;;;;8291302;28;20212;-68
2023/01/08 16:17:54;;;;;;;42.90;29.63;;;3.50;99.90;;;;;;8294928;28;20198;-68
2023/01/08 16:21:55;;;;;;;31.90;21.60;;;3.50;99.90;;;;;;8296509;28;20300;-69
2023/01/08 16:25:56;;;;;;;30.17;18.10;;;3.50;99.90;;;;;;8300656;28;20190;-69
2023/01/08 16:29:58;;;;;;;56.70;27.57;;;3.50;99.90;;;;;;8292244;28;20237;-69
2023/01/08 16:34:03;;;;;;;40.50;22.03;;;3.50;99.90;;;;;;8293862;28;20214;-69
2023/01/08 16:38:04;;;;;;;33.37;20.70;;;3.50;99.90;;;;;;8289553;28;20214;-68
2023/01/08 16:42:05;;;;;;;28.70;19.87;;;3.50;99.90;;;;;;8295521;28;20213;-69
2023/01/08 16:46:11;;;;;;;29.50;19.57;;;3.60;99.90;;;;;;8292656;28;20211;-68
2023/01/08 16:50:12;;;;;;;33.07;18.90;;;3.60;99.90;;;;;;8292298;28;20201;-68
2023/01/08 16:54:14;;;;;;;56.43;34.83;;;3.60;99.90;;;;;;8290030;28;20184;-68
2023/01/08 16:58:15;;;;;;;100.33;53.97;;;3.60;99.90;;;;;;8291364;28;21096;-70
2023/01/08 17:02:18;;;;;;;107.60;58.50;;;3.60;99.90;;;;;;8292634;28;20217;-71
2023/01/08 17:06:18;;;;;;;68.63;39.67;;;3.60;99.90;;;;;;8288605;28;20476;-69
2023/01/08 17:10:21;;;;;;;45.60;26.63;;;3.70;99.90;;;;;;8286333;28;20190;-68
2023/01/08 17:14:22;;;;;;;32.33;21.13;;;3.70;99.90;;;;;;8289619;28;20199;-69
2023/01/08 17:18:23;;;;;;;27.63;18.27;;;3.70;99.90;;;;;;8284414;28;20207;-66
2023/01/08 17:22:24;;;;;;;25.50;16.20;;;3.80;99.90;;;;;;8287861;28;20268;-69
2023/01/08 17:26:26;;;;;;;23.43;15.27;;;3.80;99.90;;;;;;8294904;28;20189;-67
2023/01/08 17:30:27;;;;;;;25.37;15.57;;;3.90;99.90;;;;;;8291548;28;20194;-68
2023/01/08 17:34:28;;;;;;;20.10;13.63;;;4.00;99.90;;;;;;8291085;28;20213;-70
2023/01/08 17:38:29;;;;;;;68.37;37.10;;;4.00;99.90;;;;;;8298802;28;20229;-69
2023/01/08 17:42:30;;;;;;;138.70;73.73;;;4.10;99.90;;;;;;8295565;28;20189;-67
2023/01/08 17:46:40;;;;;;;113.03;61.97;;;4.10;99.90;;;;;;8291224;28;20207;-67
2023/01/08 17:50:41;;;;;;;81.50;45.77;;;4.10;99.90;;;;;;8307792;28;20277;-67
2023/01/08 17:54:42;;;;;;;33.97;21.97;;;4.10;99.90;;;;;;8295304;28;20191;-70
2023/01/08 17:58:44;;;;;;;28.40;17.80;;;4.10;99.90;;;;;;8287691;28;20214;-71
2023/01/08 18:02:45;;;;;;;25.90;16.47;;;4.10;99.90;;;;;;8288723;28;20396;-69
2023/01/08 18:06:46;;;;;;;23.20;15.23;;;4.10;99.90;;;;;;8288299;28;20182;-67
2023/01/08 18:10:47;;;;;;;121.13;66.53;;;4.20;99.90;;;;;;8297532;28;20197;-68
2023/01/08 18:14:48;;;;;;;175.37;92.07;;;4.20;99.90;;;;;;8294611;28;20287;-68
2023/01/08 18:18:49;;;;;;;134.70;73.37;;;4.00;99.90;;;;;;8290240;28;20215;-69
2023/01/08 18:22:52;;;;;;;104.47;57.63;;;3.90;99.90;;;;;;8289196;28;20186;-67
2023/01/08 18:26:53;;;;;;;72.00;40.00;;;3.90;99.90;;;;;;8286835;28;20186;-67
2023/01/08 18:30:54;;;;;;;47.33;27.83;;;4.00;99.90;;;;;;8297290;28;20194;-68
2023/01/08 18:34:55;;;;;;;128.13;69.87;;;4.10;99.90;;;;;;8298781;28;20219;-69
2023/01/08 18:38:56;;;;;;;144.43;81.67;;;4.10;99.90;;;;;;8302343;28;20639;-68
2023/01/08 18:42:57;;;;;;;121.97;71.00;;;4.10;99.90;;;;;;8295465;28;20188;-69
2023/01/08 18:46:58;;;;;;;51.67;30.30;;;4.20;99.90;;;;;;8297104;28;20183;-67
2023/01/08 18:51:04;;;;;;;43.77;26.93;;;4.40;99.90;;;;;;8295575;28;20193;-69
2023/01/08 18:55:05;;;;;;;22.27;14.67;;;4.60;99.90;;;;;;8297469;28;20198;-69
2023/01/08 18:59:07;;;;;;;18.70;12.00;;;4.90;99.90;;;;;;8294874;28;20210;-68
2023/01/08 19:03:09;;;;;;;30.83;19.47;;;5.10;99.90;;;;;;8297418;28;20183;-68
2023/01/08 19:07:10;;;;;;;18.50;11.43;;;5.20;99.90;;;;;;8311636;28;20179;-69
2023/01/08 19:11:12;;;;;;;10.83;6.90;;;5.30;99.90;;;;;;8301233;28;20198;-68
2023/01/08 19:15:13;;;;;;;8.03;6.03;;;5.40;99.90;;;;;;8297903;28;20575;-69
2023/01/08 19:19:14;;;;;;;12.23;7.50;;;5.50;99.90;;;;;;8295383;28;20238;-68
2023/01/08 19:23:15;;;;;;;12.57;8.07;;;5.50;99.90;;;;;;8293669;28;20289;-70
2023/01/08 19:27:16;;;;;;;11.63;7.93;;;5.50;99.90;;;;;;8297609;28;20194;-69
2023/01/08 19:31:17;;;;;;;17.13;10.37;;;5.50;99.90;;;;;;8298375;28;20206;-69
2023/01/08 19:35:18;;;;;;;15.93;10.47;;;5.40;99.90;;;;;;8291406;28;20285;-69
2023/01/08 19:39:21;;;;;;;18.40;12.10;;;5.30;99.90;;;;;;8290068;28;20222;-69
2023/01/08 19:43:40;;;;;;;18.17;11.80;;;5.20;99.90;;;;;;8295787;28;20317;-68
2023/01/08 19:47:41;;;;;;;19.70;12.17;;;5.00;99.90;;;;;;8294916;28;21228;-70
2023/01/08 19:51:42;;;;;;;18.10;12.50;;;4.80;99.90;;;;;;8294411;28;20260;-68
2023/01/08 19:55:44;;;;;;;16.87;11.67;;;4.70;99.90;;;;;;8295687;28;20565;-68
2023/01/08 19:59:45;;;;;;;19.90;11.77;;;4.50;99.90;;;;;;8297123;28;20226;-68
2023/01/08 20:03:48;;;;;;;21.10;13.13;;;4.30;99.90;;;;;;8300250;28;20187;-69
2023/01/08 20:07:50;;;;;;;20.83;12.93;;;4.20;99.90;;;;;;8301843;28;20422;-69
2023/01/08 20:11:51;;;;;;;22.77;12.70;;;4.00;99.90;;;;;;8299538;28;20198;-68
2023/01/08 20:15:56;;;;;;;16.83;11.43;;;3.80;99.90;;;;;;8293810;28;20240;-69
2023/01/08 20:19:57;;;;;;;24.17;15.63;;;3.60;99.90;;;;;;8293840;28;20218;-68
2023/01/08 20:24:08;;;;;;;61.13;36.10;;;3.40;99.90;;;;;;8295428;28;20234;-67
2023/01/08 20:28:09;;;;;;;52.83;31.73;;;3.20;99.90;;;;;;8311527;28;20565;-66
2023/01/08 20:32:10;;;;;;;40.67;24.73;;;3.00;99.90;;;;;;8292825;28;20232;-66
2023/01/08 20:36:14;;;;;;;23.27;15.27;;;2.70;99.90;;;;;;8297772;28;20202;-66
2023/01/08 20:40:16;;;;;;;16.20;10.63;;;2.50;99.90;;;;;;8282041;28;20311;-67
2023/01/08 20:44:16;;;;;;;16.37;9.70;;;2.40;99.90;;;;;;8295404;28;20214;-65